Custer Park, Illinois
Current Conditions -  °F | °C
As of 12:15 PM on Thursday 27 Nov 2014 (Local Time) from KJOT Reporting Station
Light Snow Light Snow  
Wind Chill: -8°   Ceiling: 2100
Heat Index: -4°   Visibility: 7mi
Dew Point: -8°   Wind: 7mph
Humidity: 75%   Direction: 310°NW
Pressure: 30.36"   Gusts: NA
Location:  41.3199°N, 88.0518°W
Report Text: KJOT 271815Z AUTO 31006KT 7SM -SN OVC021 M04/M07 A3036 RMK AO2 T10371075
Loading
Personal Weather Stations






























Interactive Weather Map New forecast layout! Learn more

10-Day Weather Forecast

Advertisements
Track Severe Weather on mobile